Time;durP1;ratioP1;P1;durP2;ratioP2;P2;SDS_P1;SDS_P2;PMS_P1;PMS_P2;Temp;Humidity;BMP_temperature;BMP_pressure;BME280_temperature;BME280_humidity;BME280_pressure;Samples;Min_cycle;Max_cycle;Signal;HPM_P1;HPM_P2
2022/03/17 00:01:19;;;;;;;25.63;17.27;;;9.80;99.90;;;;;;4967572;28;20471;-93
2022/03/17 00:03:45;;;;;;;22.95;16.92;;;9.60;99.90;;;;;;4966017;28;20528;-94
2022/03/17 00:06:13;;;;;;;25.30;18.35;;;9.70;99.90;;;;;;4966144;28;20297;-91
2022/03/17 00:08:39;;;;;;;25.23;16.75;;;9.70;99.90;;;;;;4981940;28;20050;-91
2022/03/17 00:11:05;;;;;;;24.23;16.95;;;9.60;99.90;;;;;;4965963;28;20544;-91
2022/03/17 00:13:31;;;;;;;25.67;16.80;;;9.70;99.90;;;;;;4982274;28;20088;-91
2022/03/17 00:15:57;;;;;;;27.38;18.05;;;9.70;99.90;;;;;;4982269;28;20057;-92
2022/03/17 00:18:23;;;;;;;28.73;16.80;;;9.60;99.90;;;;;;4998110;28;20129;-95
2022/03/17 00:20:48;;;;;;;26.02;17.20;;;9.60;99.90;;;;;;4997720;28;20203;-94
2022/03/17 00:23:14;;;;;;;26.35;17.48;;;9.70;99.90;;;;;;4981878;28;20042;-92
2022/03/17 00:25:40;;;;;;;24.23;16.77;;;9.90;99.90;;;;;;4998302;28;20429;-94
2022/03/17 00:28:06;;;;;;;28.90;18.55;;;9.90;99.90;;;;;;4981714;28;20049;-93
2022/03/17 00:30:32;;;;;;;25.00;18.02;;;9.70;99.90;;;;;;4965839;28;20044;-94
2022/03/17 00:32:57;;;;;;;25.35;17.35;;;9.70;99.90;;;;;;4997990;28;20175;-93
2022/03/17 00:35:35;;;;;;;28.02;19.95;;;9.70;99.90;;;;;;4997660;28;20041;-91
2022/03/17 00:38:07;;;;;;;27.10;18.67;;;9.80;99.90;;;;;;4983425;28;20058;-93
2022/03/17 00:40:33;;;;;;;30.33;17.90;;;9.80;99.90;;;;;;4997702;28;20465;-93
2022/03/17 00:43:00;;;;;;;28.70;18.75;;;9.80;99.90;;;;;;4981420;28;20084;-92
2022/03/17 00:45:26;;;;;;;28.00;18.77;;;9.70;99.90;;;;;;4966487;28;20037;-95
2022/03/17 00:47:52;;;;;;;26.02;18.38;;;9.70;99.90;;;;;;4981422;28;20109;-91
2022/03/17 00:50:18;;;;;;;27.75;18.50;;;9.70;99.90;;;;;;4981519;28;20133;-93
2022/03/17 00:52:43;;;;;;;26.55;18.75;;;9.70;99.90;;;;;;4965364;28;20042;-95
2022/03/17 00:55:09;;;;;;;29.23;19.40;;;9.60;99.90;;;;;;5013507;28;20045;-91
2022/03/17 01:08:39;;;;;;;28.70;19.88;;;9.60;99.90;;;;;;5010348;28;20036;-93
2022/03/17 01:11:05;;;;;;;29.17;18.73;;;9.70;99.90;;;;;;4980720;28;20378;-94
2022/03/17 01:13:32;;;;;;;25.88;18.45;;;9.60;99.90;;;;;;4976663;28;20034;-95
2022/03/17 01:15:58;;;;;;;28.55;19.75;;;9.70;99.90;;;;;;4980352;28;20049;-92
2022/03/17 01:18:24;;;;;;;26.83;18.92;;;9.70;99.90;;;;;;4969897;28;20038;-93
2022/03/17 01:20:50;;;;;;;25.75;18.10;;;9.70;99.90;;;;;;4966385;28;20081;-95
2022/03/17 01:23:17;;;;;;;29.63;19.48;;;9.60;99.90;;;;;;4987820;28;20121;-93
2022/03/17 01:25:43;;;;;;;27.20;17.85;;;9.70;99.90;;;;;;4961172;28;20347;-95
2022/03/17 01:28:08;;;;;;;28.58;19.30;;;9.60;99.90;;;;;;4993153;28;20529;-96
2022/03/17 01:30:35;;;;;;;29.92;19.98;;;9.70;99.90;;;;;;4984109;28;20123;-93
2022/03/17 01:33:01;;;;;;;31.17;20.13;;;9.70;99.90;;;;;;4995839;28;20499;-95
2022/03/17 01:35:27;;;;;;;27.08;19.48;;;9.70;99.90;;;;;;4961189;28;20057;-95
2022/03/17 01:37:53;;;;;;;30.42;21.30;;;9.70;99.90;;;;;;4995550;28;20070;-94
2022/03/17 01:40:19;;;;;;;35.08;19.95;;;9.70;99.90;;;;;;4996245;28;20571;-95
2022/03/17 01:42:45;;;;;;;33.58;20.42;;;9.70;99.90;;;;;;4996018;28;20053;-94
2022/03/17 01:45:12;;;;;;;27.63;19.40;;;9.70;99.90;;;;;;4997629;28;20081;-91
2022/03/17 01:47:38;;;;;;;27.88;19.00;;;9.70;99.90;;;;;;4997100;28;20052;-91
2022/03/17 01:50:12;;;;;;;30.90;21.17;;;9.70;99.90;;;;;;4979665;28;20101;-94
2022/03/17 01:52:39;;;;;;;27.30;19.05;;;9.70;99.90;;;;;;4994829;28;20053;-91
2022/03/17 01:55:06;;;;;;;29.00;19.48;;;9.70;99.90;;;;;;4996165;28;20089;-92
2022/03/17 01:57:33;;;;;;;25.92;19.50;;;9.70;99.90;;;;;;5011564;28;20085;-94
2022/03/17 02:00:00;;;;;;;30.92;20.40;;;9.70;99.90;;;;;;5012699;28;20044;-95
2022/03/17 02:02:26;;;;;;;27.33;19.70;;;9.70;99.90;;;;;;4975907;28;20066;-94
2022/03/17 02:04:52;;;;;;;26.67;19.38;;;10.00;99.90;;;;;;4983288;28;20076;-92
2022/03/17 02:07:19;;;;;;;28.52;19.83;;;9.80;99.90;;;;;;4958144;28;20042;-92
2022/03/17 02:09:48;;;;;;;26.65;19.60;;;9.90;99.90;;;;;;4997039;28;20495;-94
2022/03/17 02:15:07;;;;;;;30.20;21.08;;;9.90;99.90;;;;;;4995403;28;20053;-93
2022/03/17 02:17:44;;;;;;;26.20;19.00;;;9.80;1.00;;;;;;5011541;28;20103;-95
2022/03/17 02:20:12;;;;;;;27.73;19.08;;;9.80;1.00;;;;;;4999509;28;20092;-92
2022/03/17 02:22:50;;;;;;;29.27;20.00;;;9.80;1.00;;;;;;4999433;28;20528;-95
2022/03/17 02:25:36;;;;;;;28.25;20.85;;;9.70;1.00;;;;;;4999291;28;20045;-92
2022/03/17 02:28:07;;;;;;;31.83;21.52;;;9.60;25.20;;;;;;5010377;28;20042;-96
2022/03/17 02:30:36;;;;;;;30.45;22.27;;;9.50;65.60;;;;;;4999532;28;20050;-92
2022/03/17 02:33:05;;;;;;;29.80;22.10;;;9.50;99.90;;;;;;4999893;28;20434;-93
2022/03/17 02:35:32;;;;;;;32.20;22.55;;;9.40;99.90;;;;;;4999871;28;20045;-91
2022/03/17 02:38:01;;;;;;;34.63;23.92;;;9.50;99.90;;;;;;4980988;28;20054;-94
2022/03/17 02:40:27;;;;;;;31.58;23.42;;;9.50;99.90;;;;;;4999106;28;20483;-93
2022/03/17 02:42:54;;;;;;;28.23;21.58;;;9.50;99.90;;;;;;4957607;28;20125;-93
2022/03/17 02:45:22;;;;;;;31.15;22.00;;;9.50;99.90;;;;;;4999870;28;20056;-90
2022/03/17 02:47:51;;;;;;;26.65;21.08;;;9.50;99.90;;;;;;4999448;28;20488;-94
2022/03/17 02:50:18;;;;;;;30.73;21.33;;;9.50;99.90;;;;;;4999906;28;20504;-94
2022/03/17 02:52:44;;;;;;;27.98;20.25;;;9.60;99.90;;;;;;4978676;28;20046;-94
2022/03/17 02:55:11;;;;;;;28.88;21.27;;;9.70;99.90;;;;;;4985002;28;20104;-92
2022/03/17 02:57:41;;;;;;;30.38;21.42;;;9.80;99.90;;;;;;4982850;28;20053;-94
2022/03/17 03:00:09;;;;;;;31.00;23.08;;;9.70;99.90;;;;;;4983089;28;20112;-93
2022/03/17 03:02:35;;;;;;;31.05;21.08;;;9.80;99.90;;;;;;4982974;28;20042;-92
2022/03/17 03:05:02;;;;;;;30.63;21.88;;;9.80;99.90;;;;;;5000585;28;20145;-93
2022/03/17 03:07:28;;;;;;;30.35;22.25;;;9.90;99.90;;;;;;4998505;28;20046;-93
2022/03/17 03:09:55;;;;;;;28.95;21.20;;;9.90;95.50;;;;;;4982848;28;20042;-92
2022/03/17 03:12:21;;;;;;;34.08;21.67;;;9.90;89.80;;;;;;4980045;28;20038;-91
2022/03/17 03:14:48;;;;;;;27.95;21.05;;;9.90;75.40;;;;;;4982657;28;20057;-93
2022/03/17 03:17:14;;;;;;;31.67;21.48;;;10.00;73.50;;;;;;4998702;28;20042;-93
2022/03/17 03:19:39;;;;;;;28.35;21.38;;;10.00;72.90;;;;;;4982981;28;20053;-92
2022/03/17 03:22:05;;;;;;;30.83;22.27;;;10.00;72.50;;;;;;4966406;28;20046;-93
2022/03/17 03:24:31;;;;;;;34.00;23.10;;;10.00;71.50;;;;;;5014403;28;20149;-93
2022/03/17 03:26:57;;;;;;;28.45;21.33;;;10.00;89.80;;;;;;4982327;28;20042;-91
2022/03/17 03:29:23;;;;;;;27.95;22.75;;;10.00;92.70;;;;;;4982426;28;20046;-90
2022/03/17 03:31:55;;;;;;;29.85;22.60;;;10.00;96.20;;;;;;4982295;28;20034;-92
2022/03/17 03:34:21;;;;;;;29.42;22.20;;;10.00;99.90;;;;;;4999331;28;20113;-93
2022/03/17 03:39:33;;;;;;;29.42;22.50;;;10.00;99.90;;;;;;5014381;28;20057;-89
2022/03/17 03:41:59;;;;;;;28.45;21.35;;;10.00;99.90;;;;;;4998499;28;20050;-92
2022/03/17 03:44:25;;;;;;;30.65;23.85;;;10.00;99.90;;;;;;4998143;28;20045;-92
2022/03/17 03:46:51;;;;;;;30.40;23.67;;;10.00;99.90;;;;;;4998305;28;20038;-91
2022/03/17 03:49:17;;;;;;;32.60;26.27;;;10.00;99.90;;;;;;5014773;28;20042;-93
2022/03/17 03:51:42;;;;;;;34.47;27.83;;;10.00;99.90;;;;;;4982463;28;20084;-90
2022/03/17 03:54:15;;;;;;;39.72;30.10;;;9.90;99.90;;;;;;4981179;28;20073;-90
2022/03/17 03:56:44;;;;;;;40.60;29.92;;;9.60;1.00;;;;;;4982787;28;20132;-93
2022/03/17 03:59:22;;;;;;;43.13;30.70;;;9.20;1.00;;;;;;4975007;28;20153;-94
2022/03/17 04:01:49;;;;;;;44.63;32.45;;;9.10;1.00;;;;;;4978104;28;20053;-92
2022/03/17 04:04:17;;;;;;;54.13;36.15;;;8.90;1.00;;;;;;4994296;28;20104;-90
2022/03/17 04:06:45;;;;;;;48.88;33.03;;;8.80;1.00;;;;;;4994775;28;20042;-93
2022/03/17 04:09:15;;;;;;;61.70;38.38;;;8.70;1.00;;;;;;4996767;28;20077;-89
2022/03/17 04:11:43;;;;;;;59.38;36.95;;;8.60;7.10;;;;;;4998099;28;20038;-93
2022/03/17 04:14:10;;;;;;;65.30;37.58;;;8.60;92.30;;;;;;4996490;28;20049;-88
2022/03/17 04:16:36;;;;;;;66.65;40.22;;;8.50;99.90;;;;;;4981294;28;20481;-91
2022/03/17 04:19:02;;;;;;;71.03;40.42;;;8.50;99.90;;;;;;4976179;28;20042;-89
2022/03/17 04:21:28;;;;;;;78.45;43.05;;;8.40;99.90;;;;;;4993693;28;20073;-92
2022/03/17 04:23:54;;;;;;;94.07;46.10;;;8.50;99.90;;;;;;4981594;28;20033;-90
2022/03/17 04:26:20;;;;;;;96.15;46.95;;;8.40;99.90;;;;;;4964485;28;20045;-88
2022/03/17 04:28:46;;;;;;;105.22;50.58;;;8.40;99.90;;;;;;5012313;28;20042;-91
2022/03/17 04:31:12;;;;;;;115.38;52.10;;;8.40;99.90;;;;;;4980593;28;20110;-92
2022/03/17 04:33:39;;;;;;;119.97;52.70;;;8.50;99.90;;;;;;4996960;28;20480;-92
2022/03/17 04:36:06;;;;;;;128.18;55.10;;;8.40;99.90;;;;;;4980350;28;20100;-88
2022/03/17 04:38:32;;;;;;;121.00;52.95;;;8.40;99.90;;;;;;4996693;28;20073;-92
2022/03/17 04:40:58;;;;;;;141.07;55.42;;;8.30;99.90;;;;;;5013357;28;20046;-88
2022/03/17 04:43:24;;;;;;;120.43;51.47;;;8.50;99.90;;;;;;4996190;28;20050;-91
2022/03/17 04:45:50;;;;;;;154.32;57.00;;;8.40;99.90;;;;;;4980433;28;20081;-89
2022/03/17 04:48:16;;;;;;;170.40;62.47;;;8.40;99.90;;;;;;5011863;28;20045;-88
2022/03/17 04:50:42;;;;;;;168.90;62.58;;;8.50;99.90;;;;;;5012777;28;20390;-89
2022/03/17 04:53:27;;;;;;;176.45;61.13;;;8.50;99.90;;;;;;4996786;28;20045;-88
2022/03/17 04:55:53;;;;;;;143.85;54.00;;;8.50;99.90;;;;;;5012308;28;20412;-88
2022/03/17 04:58:19;;;;;;;146.05;51.05;;;8.60;99.90;;;;;;4995830;28;20058;-91
2022/03/17 05:00:46;;;;;;;158.40;54.90;;;8.40;99.90;;;;;;4996164;28;20057;-87
2022/03/17 05:03:12;;;;;;;137.07;50.47;;;8.60;99.90;;;;;;4996400;28;20085;-88
2022/03/17 05:05:38;;;;;;;66.57;27.60;;;8.50;99.90;;;;;;4995498;28;20081;-89
2022/03/17 05:08:05;;;;;;;48.60;22.92;;;8.30;99.90;;;;;;4979922;28;20421;-89
2022/03/17 05:10:33;;;;;;;42.63;19.63;;;8.20;99.90;;;;;;4996070;28;20085;-88
2022/03/17 05:12:59;;;;;;;45.88;19.65;;;8.00;99.90;;;;;;5012460;28;20052;-90
2022/03/17 05:15:25;;;;;;;36.92;15.27;;;8.00;99.90;;;;;;5012481;28;20053;-88
2022/03/17 05:17:51;;;;;;;36.78;15.82;;;7.80;99.90;;;;;;4995766;28;20046;-87
2022/03/17 05:20:17;;;;;;;33.03;15.23;;;7.60;99.90;;;;;;4996016;28;20136;-89
2022/03/17 05:22:43;;;;;;;38.13;16.35;;;7.40;99.90;;;;;;4995334;28;20048;-87
2022/03/17 05:25:10;;;;;;;32.72;16.08;;;7.20;99.90;;;;;;4996000;28;20552;-90
2022/03/17 05:27:41;;;;;;;46.20;18.88;;;7.40;99.90;;;;;;4980077;28;20045;-88
2022/03/17 05:30:09;;;;;;;42.63;18.17;;;7.30;99.90;;;;;;5011368;28;20165;-88
2022/03/17 05:32:35;;;;;;;34.78;17.95;;;7.30;99.90;;;;;;5011982;28;20053;-90
2022/03/17 05:35:01;;;;;;;51.10;21.40;;;7.30;99.90;;;;;;5012241;28;20390;-87
2022/03/17 05:37:27;;;;;;;44.90;20.15;;;7.20;99.90;;;;;;4991992;28;20053;-88
2022/03/17 05:39:52;;;;;;;54.83;23.63;;;7.00;99.90;;;;;;4976167;28;20046;-90
2022/03/17 05:42:18;;;;;;;58.45;24.55;;;7.10;99.90;;;;;;4991553;28;20054;-88
2022/03/17 05:44:44;;;;;;;62.28;24.50;;;6.90;99.90;;;;;;4960524;28;20046;-90
2022/03/17 05:47:10;;;;;;;71.72;27.40;;;7.10;99.90;;;;;;4992544;28;20047;-92
2022/03/17 05:49:36;;;;;;;66.20;27.75;;;7.10;99.90;;;;;;4998880;28;20049;-91
2022/03/17 05:52:02;;;;;;;69.07;27.92;;;7.10;99.90;;;;;;4983684;28;20103;-94
2022/03/17 05:54:28;;;;;;;64.53;27.48;;;6.80;99.90;;;;;;5016598;28;20452;-89
2022/03/17 05:56:54;;;;;;;52.53;22.77;;;6.80;99.90;;;;;;5001249;28;20068;-90
2022/03/17 05:59:20;;;;;;;64.78;24.40;;;7.00;99.90;;;;;;4996358;28;20112;-92
2022/03/17 06:01:46;;;;;;;44.42;17.27;;;7.00;99.90;;;;;;4967687;28;20105;-90
2022/03/17 06:04:12;;;;;;;47.80;18.58;;;6.70;99.90;;;;;;4980712;28;20046;-90
2022/03/17 06:06:38;;;;;;;46.33;17.90;;;6.60;99.90;;;;;;4981788;28;20042;-91
2022/03/17 06:09:03;;;;;;;37.75;14.95;;;6.50;99.90;;;;;;5000356;28;20042;-92
2022/03/17 06:11:29;;;;;;;29.55;12.55;;;6.50;99.90;;;;;;4982794;28;20037;-91
2022/03/17 06:13:56;;;;;;;35.25;12.30;;;6.50;99.90;;;;;;4982388;28;20038;-90
2022/03/17 06:16:23;;;;;;;31.67;12.32;;;6.50;99.90;;;;;;4999316;28;20042;-90
2022/03/17 06:18:49;;;;;;;38.80;11.93;;;6.60;99.90;;;;;;4983735;28;20042;-90
2022/03/17 06:21:15;;;;;;;30.38;10.45;;;6.50;99.90;;;;;;4999928;28;20092;-90
2022/03/17 06:23:43;;;;;;;33.50;11.32;;;6.50;99.90;;;;;;4983735;28;20432;-89
2022/03/17 06:26:09;;;;;;;28.60;12.23;;;6.50;99.90;;;;;;5015680;28;20516;-90
2022/03/17 06:28:35;;;;;;;38.28;11.65;;;6.60;99.90;;;;;;4999447;28;20130;-92
2022/03/17 06:31:01;;;;;;;23.20;9.32;;;6.70;99.90;;;;;;4979608;28;20520;-92
2022/03/17 06:33:29;;;;;;;28.02;9.77;;;6.50;99.90;;;;;;4979394;28;20049;-91
2022/03/17 06:35:55;;;;;;;28.48;8.70;;;6.50;99.90;;;;;;4964590;28;20101;-92
2022/03/17 06:38:21;;;;;;;25.15;8.40;;;6.50;99.90;;;;;;4996701;28;20437;-90
2022/03/17 06:40:47;;;;;;;24.48;8.43;;;6.60;99.90;;;;;;4987274;28;20565;-89
2022/03/17 06:43:14;;;;;;;27.05;7.05;;;6.70;99.90;;;;;;5015298;28;20070;-92
2022/03/17 06:45:41;;;;;;;17.75;4.93;;;6.60;99.90;;;;;;4979555;28;20052;-91
2022/03/17 06:48:06;;;;;;;20.48;4.90;;;6.60;99.90;;;;;;4996050;28;20543;-93
2022/03/17 06:50:33;;;;;;;19.45;3.88;;;6.50;99.90;;;;;;4979817;28;20038;-91
2022/03/17 06:52:58;;;;;;;20.27;4.13;;;6.80;99.90;;;;;;4979750;28;20042;-92
2022/03/17 06:55:24;;;;;;;13.52;2.90;;;6.60;99.90;;;;;;4980665;28;20113;-91
2022/03/17 06:57:50;;;;;;;13.38;2.83;;;6.70;99.90;;;;;;4979634;28;20078;-91
2022/03/17 07:00:18;;;;;;;12.93;3.30;;;6.40;99.90;;;;;;4978341;28;20049;-89
2022/03/17 07:02:44;;;;;;;14.80;2.70;;;6.40;99.90;;;;;;4979671;28;20478;-92
2022/03/17 07:05:10;;;;;;;13.45;2.80;;;6.40;99.90;;;;;;4963700;28;20045;-91
2022/03/17 07:07:36;;;;;;;14.98;2.00;;;6.60;99.90;;;;;;4963474;28;20042;-89
2022/03/17 07:10:02;;;;;;;10.80;2.33;;;6.40;99.90;;;;;;4963507;28;20043;-89
2022/03/17 07:12:28;;;;;;;15.77;2.42;;;6.50;99.90;;;;;;4996276;28;20046;-90
2022/03/17 07:14:54;;;;;;;18.33;2.97;;;6.50;99.90;;;;;;4963383;28;20050;-92
2022/03/17 07:17:21;;;;;;;13.18;2.33;;;6.60;99.90;;;;;;4979032;28;20133;-87
2022/03/17 07:22:26;;;;;;;15.00;2.20;;;6.60;99.90;;;;;;4995225;28;20085;-91
2022/03/17 07:24:55;;;;;;;14.85;2.33;;;6.50;99.90;;;;;;4995668;28;20081;-92
2022/03/17 07:27:21;;;;;;;14.60;2.15;;;6.50;99.90;;;;;;4980079;28;20102;-94
2022/03/17 07:29:48;;;;;;;23.20;4.25;;;6.60;99.90;;;;;;4978913;28;20089;-90
2022/03/17 07:32:14;;;;;;;20.58;3.35;;;6.70;99.90;;;;;;4995455;28;20105;-89
2022/03/17 07:34:39;;;;;;;15.20;2.40;;;6.70;99.90;;;;;;4978899;28;20517;-91
2022/03/17 07:37:05;;;;;;;20.50;2.58;;;6.70;99.90;;;;;;4978573;28;20507;-90
2022/03/17 07:39:31;;;;;;;13.80;2.05;;;7.00;99.90;;;;;;4978434;28;20054;-89
2022/03/17 07:41:57;;;;;;;15.40;2.58;;;6.80;99.90;;;;;;4962826;28;20141;-89
2022/03/17 07:44:23;;;;;;;22.25;2.20;;;6.70;99.90;;;;;;4979072;28;20046;-87
2022/03/17 07:46:48;;;;;;;14.60;2.20;;;6.80;99.90;;;;;;4962695;28;20038;-89
2022/03/17 07:49:14;;;;;;;20.23;3.22;;;6.70;99.90;;;;;;4978588;28;20043;-90
2022/03/17 07:51:42;;;;;;;18.25;2.90;;;6.70;99.90;;;;;;4978685;28;20398;-90
2022/03/17 07:54:07;;;;;;;23.55;2.63;;;7.00;99.90;;;;;;4962850;28;20047;-93
2022/03/17 07:56:34;;;;;;;15.38;2.42;;;7.00;99.90;;;;;;4962513;28;20050;-92
2022/03/17 07:59:00;;;;;;;13.27;2.25;;;6.80;99.90;;;;;;4978758;28;20050;-93
2022/03/17 08:01:26;;;;;;;20.88;2.78;;;6.90;99.90;;;;;;4978348;28;20104;-92
2022/03/17 08:03:53;;;;;;;21.15;3.15;;;7.20;99.90;;;;;;4946726;28;20563;-92
2022/03/17 08:06:21;;;;;;;17.63;3.47;;;6.90;99.90;;;;;;4978539;28;20043;-94
2022/03/17 08:08:46;;;;;;;17.15;2.47;;;6.80;99.90;;;;;;4994540;28;20053;-93
2022/03/17 08:11:13;;;;;;;14.45;2.63;;;6.90;95.30;;;;;;4962156;28;20042;-92
2022/03/17 08:13:41;;;;;;;31.40;3.95;;;6.90;52.90;;;;;;4994714;28;20047;-95
2022/03/17 08:16:07;;;;;;;17.67;3.58;;;6.90;55.80;;;;;;4978742;28;20074;-89
2022/03/17 08:18:34;;;;;;;21.38;4.10;;;7.10;28.30;;;;;;4978497;28;20046;-89
2022/03/17 08:21:00;;;;;;;18.70;4.05;;;7.10;5.30;;;;;;4978099;28;20089;-92
2022/03/17 08:23:25;;;;;;;28.17;3.90;;;7.10;1.00;;;;;;4961988;28;20081;-93
2022/03/17 08:25:51;;;;;;;18.65;2.72;;;7.10;1.00;;;;;;4992012;28;20042;-89
2022/03/17 08:28:18;;;;;;;27.08;4.63;;;7.50;1.00;;;;;;4974532;28;20046;-90
2022/03/17 08:30:48;;;;;;;11.60;1.90;;;7.40;1.00;;;;;;5011759;28;20041;-90
2022/03/17 08:33:18;;;;;;;22.80;2.20;;;7.20;1.00;;;;;;4969141;28;20115;-92
2022/03/17 08:35:44;;;;;;;15.23;1.80;;;7.10;1.00;;;;;;4995467;28;20030;-90
2022/03/17 08:38:10;;;;;;;12.48;1.40;;;7.10;99.90;;;;;;4974849;28;20350;-90
2022/03/17 08:40:40;;;;;;;14.38;1.95;;;7.20;99.90;;;;;;4995212;28;20067;-92
2022/03/17 08:43:11;;;;;;;20.13;2.42;;;7.10;99.90;;;;;;4992688;28;20052;-89
2022/03/17 08:51:09;;;;;;;17.27;2.25;;;6.90;99.90;;;;;;5008755;28;20046;-88
2022/03/17 08:53:36;;;;;;;20.23;2.33;;;7.00;99.90;;;;;;4995340;28;20045;-88
2022/03/17 08:56:03;;;;;;;16.13;2.83;;;7.00;99.90;;;;;;4979640;28;20515;-90
2022/03/17 08:58:29;;;;;;;16.90;3.10;;;7.10;1.00;;;;;;4998077;28;20507;-89
2022/03/17 09:00:56;;;;;;;16.90;2.33;;;7.20;1.00;;;;;;4980394;28;20081;-93
2022/03/17 09:03:21;;;;;;;11.73;1.70;;;7.30;99.90;;;;;;4996343;28;20042;-91
2022/03/17 09:05:47;;;;;;;14.88;3.00;;;7.40;99.90;;;;;;4977047;28;20483;-93
2022/03/17 09:08:13;;;;;;;18.95;2.17;;;7.50;99.90;;;;;;4978726;28;20497;-89
2022/03/17 09:10:39;;;;;;;10.30;2.30;;;7.40;99.90;;;;;;4975757;28;20057;-91
2022/03/17 09:13:09;;;;;;;12.60;1.98;;;7.40;99.90;;;;;;4993142;28;20133;-93
2022/03/17 09:15:40;;;;;;;13.95;2.45;;;7.30;99.90;;;;;;4977737;28;20053;-91
2022/03/17 09:18:08;;;;;;;9.50;1.67;;;7.20;99.90;;;;;;4977387;28;20049;-92
2022/03/17 09:20:35;;;;;;;15.32;2.63;;;7.30;99.90;;;;;;4993016;28;20049;-92
2022/03/17 09:23:02;;;;;;;15.77;2.80;;;7.50;99.90;;;;;;4976390;28;20058;-91
2022/03/17 09:25:29;;;;;;;14.00;2.33;;;7.90;99.90;;;;;;4993272;28;20547;-89
2022/03/17 09:27:56;;;;;;;17.27;3.70;;;7.90;99.90;;;;;;4992946;28;20053;-90
2022/03/17 09:30:22;;;;;;;14.25;1.98;;;7.90;99.90;;;;;;4993350;28;20551;-91
2022/03/17 09:32:48;;;;;;;11.10;2.22;;;8.10;69.10;;;;;;4976931;28;20055;-92
2022/03/17 09:35:15;;;;;;;11.73;2.00;;;8.20;94.90;;;;;;4976778;28;20038;-90
2022/03/17 09:37:41;;;;;;;15.50;2.42;;;8.30;99.90;;;;;;4993336;28;20401;-88
2022/03/17 09:40:09;;;;;;;13.70;2.88;;;8.40;92.90;;;;;;4976765;28;20046;-92
2022/03/17 09:42:36;;;;;;;15.85;2.55;;;8.60;52.40;;;;;;4977387;28;20046;-93
2022/03/17 09:45:02;;;;;;;18.20;3.63;;;8.80;99.90;;;;;;4976707;28;20042;-93
2022/03/17 09:47:32;;;;;;;11.45;2.33;;;8.90;60.10;;;;;;4976764;28;20133;-92
2022/03/17 09:50:00;;;;;;;16.75;2.65;;;8.90;1.00;;;;;;4993102;28;20042;-92
2022/03/17 09:52:27;;;;;;;24.92;3.67;;;8.90;24.60;;;;;;4993725;28;20043;-90
2022/03/17 09:54:53;;;;;;;18.38;4.97;;;8.80;1.00;;;;;;4976917;28;20100;-90
2022/03/17 09:57:20;;;;;;;18.52;2.08;;;8.90;1.00;;;;;;4976246;28;20493;-89
2022/03/17 09:59:53;;;;;;;11.23;2.22;;;8.80;10.70;;;;;;4976471;28;20050;-91
2022/03/17 10:02:20;;;;;;;14.50;1.70;;;9.00;51.70;;;;;;4977210;28;20044;-92
2022/03/17 10:04:50;;;;;;;13.82;1.30;;;9.10;99.90;;;;;;4960867;28;20564;-94
2022/03/17 10:07:18;;;;;;;18.17;2.60;;;9.10;1.00;;;;;;4992641;28;20047;-91
2022/03/17 10:09:44;;;;;;;9.13;1.52;;;9.30;99.90;;;;;;4977044;28;20057;-91
2022/03/17 10:12:11;;;;;;;14.57;3.03;;;9.60;99.90;;;;;;4976560;28;20455;-90
2022/03/17 10:14:41;;;;;;;8.40;1.65;;;9.60;99.90;;;;;;4992758;28;20046;-93
2022/03/17 10:17:33;;;;;;;11.15;2.15;;;9.60;99.90;;;;;;4976722;28;20042;-92
2022/03/17 10:20:25;;;;;;;13.98;2.17;;;9.60;99.90;;;;;;4993023;28;20137;-91
2022/03/17 10:22:55;;;;;;;12.43;1.83;;;9.90;99.90;;;;;;4972825;28;20054;-94
2022/03/17 10:25:27;;;;;;;13.75;1.83;;;10.20;99.90;;;;;;4992660;28;20046;-90
2022/03/17 10:27:56;;;;;;;12.68;1.70;;;10.10;99.90;;;;;;4992797;28;20089;-89
2022/03/17 10:30:30;;;;;;;9.63;1.48;;;9.70;99.90;;;;;;4976845;28;20133;-89
2022/03/17 10:33:20;;;;;;;14.45;2.30;;;9.40;99.90;;;;;;4993252;28;20501;-90
2022/03/17 10:35:48;;;;;;;11.88;2.13;;;10.00;99.90;;;;;;4979102;28;20053;-92
2022/03/17 10:38:19;;;;;;;15.25;2.28;;;9.90;1.00;;;;;;4996312;28;20057;-89
2022/03/17 10:41:04;;;;;;;12.45;2.30;;;9.70;99.90;;;;;;4996266;28;20092;-93
2022/03/17 10:43:31;;;;;;;19.45;2.67;;;10.30;99.90;;;;;;4996153;28;20105;-90
2022/03/17 10:46:19;;;;;;;11.82;2.47;;;10.50;90.30;;;;;;4964072;28;20053;-90
2022/03/17 10:49:02;;;;;;;16.27;2.25;;;10.70;1.00;;;;;;4996838;28;20043;-91
2022/03/17 10:51:32;;;;;;;;;;;10.60;99.90;;;;;;4996574;28;20085;-92
2022/03/17 10:54:21;;;;;;;12.80;2.97;;;11.10;99.90;;;;;;4979713;28;19968;-91
2022/03/17 10:57:06;;;;;;;14.07;2.00;;;11.40;99.90;;;;;;4966217;28;20054;-93
2022/03/17 10:59:44;;;;;;;10.75;1.88;;;11.80;99.90;;;;;;4995696;28;20046;-91
2022/03/17 11:02:20;;;;;;;12.52;2.60;;;11.80;99.90;;;;;;4979926;28;20046;-91
2022/03/17 11:04:47;;;;;;;11.63;1.75;;;11.30;99.90;;;;;;4980202;28;20043;-89
2022/03/17 11:07:14;;;;;;;12.65;2.65;;;11.30;99.90;;;;;;4979804;28;20050;-91
2022/03/17 11:09:42;;;;;;;14.65;2.33;;;11.50;99.90;;;;;;4979356;28;20042;-91
2022/03/17 11:12:09;;;;;;;15.75;2.78;;;11.50;99.90;;;;;;4995489;28;20050;-91
2022/03/17 11:14:50;;;;;;;12.95;2.10;;;11.00;99.90;;;;;;4995444;28;20046;-92
2022/03/17 11:17:41;;;;;;;11.45;3.22;;;11.20;99.90;;;;;;4996038;28;20043;-93
2022/03/17 11:20:10;;;;;;;12.85;1.98;;;11.70;99.90;;;;;;4995201;28;20140;-90
2022/03/17 11:22:36;;;;;;;7.35;1.63;;;11.80;99.90;;;;;;4995564;28;20065;-91
2022/03/17 11:25:25;;;;;;;13.65;2.28;;;12.20;99.90;;;;;;4979534;28;20497;-95
2022/03/17 11:27:57;;;;;;;9.60;1.98;;;12.00;99.90;;;;;;4995118;28;20043;-89
2022/03/17 11:30:27;;;;;;;11.30;1.63;;;11.60;99.90;;;;;;4995157;28;20038;-90
2022/03/17 11:32:55;;;;;;;12.60;3.22;;;11.50;99.90;;;;;;4995327;28;20046;-92
2022/03/17 11:35:25;;;;;;;11.82;2.33;;;11.00;99.90;;;;;;4995166;28;20086;-92
2022/03/17 11:38:15;;;;;;;13.70;2.25;;;10.80;99.90;;;;;;4995661;28;20481;-91
2022/03/17 11:41:13;;;;;;;8.60;2.15;;;10.90;99.90;;;;;;4978647;28;20046;-93
2022/03/17 11:43:45;;;;;;;10.00;2.08;;;11.20;99.90;;;;;;4971554;28;20146;-90
2022/03/17 11:46:17;;;;;;;13.15;1.83;;;11.80;77.70;;;;;;4978196;28;20159;-91
2022/03/17 11:48:45;;;;;;;15.07;2.95;;;12.30;77.00;;;;;;4979361;28;20046;-91
2022/03/17 11:51:13;;;;;;;10.27;1.75;;;12.60;15.50;;;;;;4978952;28;20047;-91
2022/03/17 11:53:47;;;;;;;16.50;3.08;;;12.90;12.70;;;;;;4995013;28;20081;-92
2022/03/17 11:56:43;;;;;;;17.45;2.60;;;13.00;13.40;;;;;;4978154;28;20054;-90
2022/03/17 11:59:13;;;;;;;9.38;1.77;;;12.90;19.00;;;;;;4995377;28;20053;-91
2022/03/17 12:01:49;;;;;;;8.60;1.98;;;12.60;1.00;;;;;;4995102;28;20042;-90
2022/03/17 12:04:32;;;;;;;16.40;2.65;;;12.30;1.00;;;;;;4979024;28;20090;-91
2022/03/17 12:07:09;;;;;;;13.35;2.10;;;12.50;9.50;;;;;;4978936;28;20046;-90
2022/03/17 12:09:35;;;;;;;14.30;2.38;;;12.70;1.00;;;;;;4978893;28;20050;-91
2022/03/17 12:12:02;;;;;;;12.02;2.25;;;12.70;6.50;;;;;;4994708;28;20049;-91
2022/03/17 12:14:34;;;;;;;14.65;1.90;;;12.90;46.20;;;;;;4997079;28;20050;-92
2022/03/17 12:17:06;;;;;;;8.02;1.67;;;12.90;1.00;;;;;;4994783;28;20077;-90
2022/03/17 12:19:32;;;;;;;11.38;2.45;;;12.30;1.00;;;;;;4978196;28;20042;-91
2022/03/17 12:21:58;;;;;;;13.93;2.33;;;12.10;12.70;;;;;;4994196;28;20057;-92
2022/03/17 12:24:51;;;;;;;12.70;2.60;;;12.30;17.40;;;;;;4994102;28;20046;-92
2022/03/17 12:27:19;;;;;;;15.30;2.85;;;12.30;42.30;;;;;;4994742;28;20046;-91
2022/03/17 12:30:00;;;;;;;17.85;2.97;;;12.70;7.90;;;;;;4994600;28;20049;-89
2022/03/17 12:32:28;;;;;;;8.75;2.15;;;13.10;12.80;;;;;;4994391;28;20130;-91
2022/03/17 12:34:55;;;;;;;14.15;2.47;;;13.40;1.00;;;;;;4978249;28;20398;-91
2022/03/17 12:37:29;;;;;;;13.50;2.47;;;13.30;1.00;;;;;;4994303;28;20383;-93
2022/03/17 12:39:59;;;;;;;9.25;2.70;;;13.30;1.00;;;;;;4977718;28;20104;-90
2022/03/17 12:42:28;;;;;;;12.35;2.28;;;13.40;1.00;;;;;;4993860;28;20093;-92
2022/03/17 12:45:00;;;;;;;12.43;2.13;;;13.00;1.00;;;;;;4994080;28;20486;-91
2022/03/17 12:47:29;;;;;;;14.63;2.95;;;13.00;1.00;;;;;;4993964;28;20074;-95
2022/03/17 12:49:56;;;;;;;13.95;2.20;;;13.00;1.00;;;;;;4993942;28;20042;-90
2022/03/17 12:52:27;;;;;;;9.98;1.83;;;12.80;1.00;;;;;;4993801;28;20057;-91
2022/03/17 12:54:58;;;;;;;14.77;2.80;;;12.70;1.00;;;;;;4993334;28;20053;-91
2022/03/17 12:57:26;;;;;;;7.85;1.58;;;12.60;1.00;;;;;;4977688;28;20050;-92
2022/03/17 12:59:52;;;;;;;9.70;1.80;;;12.60;1.00;;;;;;4993722;28;20177;-91
2022/03/17 13:02:19;;;;;;;12.52;1.88;;;12.50;1.00;;;;;;4977258;28;20046;-91
2022/03/17 13:04:48;;;;;;;10.00;1.85;;;12.70;1.00;;;;;;4993610;28;20042;-93
2022/03/17 13:07:14;;;;;;;20.73;3.50;;;12.80;1.00;;;;;;4993491;28;20062;-91
2022/03/17 13:09:42;;;;;;;9.73;2.25;;;12.80;1.00;;;;;;4977524;28;20042;-92
2022/03/17 13:15:12;;;;;;;15.40;2.88;;;12.70;1.00;;;;;;4993567;28;20062;-91